createdAt,value
2017-05-28T13:51:30.487Z,30.62
2017-05-28T13:52:30.752Z,30.9
2017-05-28T13:53:30.785Z,31.48
2017-05-28T13:54:30.763Z,33.62
2017-05-28T13:55:30.767Z,32.75
2017-05-28T13:56:30.775Z,32.57
2017-05-28T13:57:30.776Z,32.45
2017-05-28T13:58:30.797Z,31.29
2017-05-28T13:59:30.791Z,31.68
2017-05-28T14:00:30.806Z,31.57
2017-05-28T14:01:30.476Z,30.79
2017-05-28T14:02:30.804Z,32.64
2017-05-28T14:03:30.488Z,33.12
2017-05-28T14:04:30.814Z,32.54
2017-05-28T14:05:30.818Z,31.76
2017-05-28T14:06:30.826Z,32.05
2017-05-28T14:07:30.851Z,32.34
2017-05-28T14:08:30.890Z,31.47
2017-05-28T14:09:30.517Z,31.76
2017-05-28T14:10:30.846Z,32.44
2017-05-28T14:11:30.873Z,32.05
2017-05-28T14:12:30.857Z,32.05
2017-05-28T14:13:30.879Z,30.4
2017-05-28T14:14:30.542Z,30.5
2017-05-28T14:15:30.871Z,31.37
2017-05-28T14:16:30.873Z,33.51
2017-05-28T14:17:30.892Z,34.48
2017-05-28T14:18:30.888Z,31.37
2017-05-28T14:19:30.584Z,31.57
2017-05-28T14:20:30.588Z,31.47
2017-05-28T14:21:30.901Z,32.34
2017-05-28T14:22:30.945Z,32.65
2017-05-28T14:23:30.587Z,32.17
2017-05-28T14:24:30.593Z,32.45
2017-05-28T14:25:30.596Z,33.04
2017-05-28T14:26:30.927Z,32.55
2017-05-28T14:27:30.613Z,33.06
2017-05-28T14:28:30.936Z,31.88
2017-05-28T14:29:30.949Z,30.62
2017-05-28T14:30:30.980Z,29.46
2017-05-28T14:31:30.949Z,29.94
2017-05-28T14:32:30.953Z,30.24
2017-05-28T14:33:30.988Z,31.79
2017-05-28T14:34:30.644Z,30.33
2017-05-28T14:35:30.646Z,29.75
2017-05-28T14:36:30.980Z,30.24
2017-05-28T14:37:30.983Z,31.38
2017-05-28T14:38:30.988Z,32.28
2017-05-28T14:39:30.991Z,28.29
2017-05-28T14:40:30.998Z,28.18
2017-05-28T14:41:31.002Z,30.51
2017-05-28T14:42:30.694Z,31.97
2017-05-28T14:43:31.034Z,31.48
2017-05-28T14:44:30.717Z,30.9
2017-05-28T14:45:30.713Z,28.47
2017-05-28T14:46:31.030Z,29.35
2017-05-28T14:47:30.711Z,28.86
2017-05-28T14:48:31.039Z,27.59
2017-05-28T14:49:31.044Z,26.72
2017-05-28T14:50:30.729Z,27.11
2017-05-28T14:51:30.731Z,26.23
2017-05-28T14:52:31.059Z,26.82
2017-05-28T14:53:30.741Z,26.72
2017-05-28T14:54:31.066Z,27.89
2017-05-28T14:55:31.106Z,26.12
2017-05-28T14:56:31.081Z,25.93
2017-05-28T14:57:31.081Z,25.74
2017-05-28T14:58:31.093Z,29.62
2017-05-28T14:59:31.112Z,28.36
2017-05-28T15:00:31.098Z,26.9
2017-05-28T15:01:31.103Z,26.9
2017-05-28T15:02:31.111Z,27.68
2017-05-28T15:03:31.113Z,27
2017-05-28T15:04:31.118Z,27.68
2017-05-28T15:05:31.124Z,28.47
2017-05-28T15:06:30.814Z,30.11
2017-05-28T15:07:31.154Z,29.62
2017-05-28T15:08:31.139Z,28.28
2017-05-28T15:09:31.146Z,28.26
2017-05-28T15:10:31.152Z,28.57
2017-05-28T15:11:31.153Z,28.76
2017-05-28T15:12:31.168Z,30.41
2017-05-28T15:13:31.162Z,30.01
2017-05-28T15:14:31.175Z,30.41
2017-05-28T15:15:30.851Z,28.76
2017-05-28T15:16:31.178Z,29.83
2017-05-28T15:17:31.184Z,30.12
2017-05-28T15:18:31.187Z,30.32
2017-05-28T15:19:30.868Z,29.74
2017-05-28T15:20:30.875Z,30.32
2017-05-28T15:21:31.210Z,30.12
2017-05-28T15:22:31.206Z,29.64
2017-05-28T15:23:30.891Z,30.12
2017-05-28T15:24:31.228Z,29.25
2017-05-28T15:25:31.234Z,30.51
2017-05-28T15:26:31.230Z,31.87
2017-05-28T15:27:31.246Z,31.87
2017-05-28T15:28:31.237Z,31.97
2017-05-28T15:29:31.245Z,33.72
2017-05-28T15:30:31.259Z,34.4
2017-05-28T15:31:30.931Z,30.71
2017-05-28T15:32:30.958Z,30.32
2017-05-28T15:33:32.749Z,30.51
2017-05-28T15:34:31.286Z,31.97
2017-05-28T15:35:31.291Z,30.71
2017-05-28T15:36:31.279Z,30.22
2017-05-28T15:37:31.293Z,29.64
2017-05-28T15:38:31.291Z,30.8
2017-05-28T15:39:30.984Z,30.41
2017-05-28T15:40:31.299Z,31.68
2017-05-28T15:41:31.305Z,30.12
2017-05-28T15:42:31.311Z,28.86
2017-05-28T15:43:30.994Z,29.44
2017-05-28T15:44:31.318Z,28.96
2017-05-28T15:45:31.336Z,29.44
2017-05-28T15:46:31.329Z,28.76
2017-05-28T15:47:31.334Z,28.28
2017-05-28T15:48:31.339Z,30.51
2017-05-28T15:49:31.344Z,32.65
2017-05-28T15:50:31.028Z,34.3
2017-05-28T15:51:31.378Z,31.68
2017-05-28T15:52:31.363Z,32.45
2017-05-28T15:53:31.043Z,34.2
2017-05-28T15:54:31.378Z,34.3
2017-05-28T15:55:31.385Z,31.97
2017-05-28T15:56:31.379Z,31.1
2017-05-28T15:57:31.074Z,30.71
2017-05-28T15:58:31.400Z,33.53
2017-05-28T15:59:31.394Z,33.33
2017-05-28T16:00:31.403Z,32.35
2017-05-28T16:01:31.406Z,32.75
2017-05-28T16:02:31.411Z,35.74
2017-05-28T16:03:31.152Z,34.87
2017-05-28T16:04:31.427Z,34.01
2017-05-28T16:05:31.436Z,31.57
2017-05-28T16:06:31.431Z,30.59
2017-05-28T16:07:31.115Z,31.47
2017-05-28T16:08:31.130Z,30.69
2017-05-28T16:09:31.446Z,30.79
2017-05-28T16:10:31.461Z,30.5
2017-05-28T16:11:31.134Z,30.11
2017-05-28T16:12:31.139Z,30.3
2017-05-28T16:13:31.145Z,29.82
2017-05-28T16:14:31.495Z,30.5
2017-05-28T16:15:31.154Z,31.37
2017-05-28T16:16:31.481Z,31.37
2017-05-28T16:17:31.501Z,33.02
2017-05-28T16:18:31.491Z,31.37
2017-05-28T16:19:31.495Z,31.76
2017-05-28T16:20:31.501Z,30.5
2017-05-28T16:21:31.504Z,30.4
2017-05-28T16:22:31.533Z,31.76
2017-05-28T16:23:31.515Z,31.48
2017-05-28T16:24:31.238Z,30.69
2017-05-28T16:25:31.204Z,31
2017-05-28T16:26:31.531Z,31.47
2017-05-28T16:27:31.536Z,31.85
2017-05-28T16:28:31.540Z,32.73
2017-05-28T16:29:31.580Z,31.57
2017-05-28T16:30:31.227Z,32.24
2017-05-28T16:31:31.234Z,32.05
2017-05-28T16:32:31.562Z,33.02
2017-05-28T16:33:31.571Z,32.15
2017-05-28T16:34:31.575Z,31.95
2017-05-28T16:35:31.577Z,31.27
2017-05-28T16:36:31.587Z,31.95
2017-05-28T16:37:31.479Z,32.54
2017-05-28T16:38:31.591Z,32.64
2017-05-28T16:39:31.590Z,31.76
2017-05-28T16:40:31.276Z,31.37
2017-05-28T16:41:31.603Z,30.5
2017-05-28T16:42:31.609Z,30.59
2017-05-28T16:43:31.615Z,31.18
2017-05-28T16:44:31.623Z,31.95
2017-05-28T16:45:31.416Z,31.66
2017-05-28T16:46:31.535Z,31.66
2017-05-28T16:47:31.314Z,31.47
2017-05-28T16:48:31.659Z,31.66
2017-05-28T16:49:31.643Z,31.18
2017-05-28T16:50:31.668Z,31.37
2017-05-28T16:51:31.663Z,30.5
2017-05-28T16:52:31.347Z,31.76
2017-05-28T16:53:31.673Z,31.37
2017-05-28T16:54:31.361Z,32.05
2017-05-28T16:55:31.671Z,31.37
2017-05-28T16:56:31.695Z,31.18
2017-05-28T16:57:31.722Z,31.35
2017-05-28T16:58:31.687Z,31.94
2017-05-28T16:59:31.692Z,30.48
2017-05-28T17:00:31.374Z,31.35
2017-05-28T17:01:31.698Z,33.01
2017-05-28T17:02:31.774Z,31.84
2017-05-28T17:03:31.766Z,30.58
2017-05-28T17:04:31.769Z,30.87
2017-05-28T17:05:33.549Z,31.84
2017-05-28T17:06:31.790Z,32.91
2017-05-28T17:07:31.817Z,32.81
2017-05-28T17:08:31.431Z,30.48
2017-05-28T17:09:31.578Z,31.65
2017-05-28T17:10:31.877Z,31.45
2017-05-28T17:11:31.786Z,30.68
2017-05-28T17:12:31.842Z,31.55
2017-05-28T17:13:31.878Z,31.84
2017-05-28T17:14:32.067Z,33.01
2017-05-28T17:15:31.786Z,31.76
2017-05-28T17:16:31.609Z,30.5
2017-05-28T17:17:32.059Z,30.11
2017-05-28T17:18:31.674Z,30.21
2017-05-28T17:19:31.955Z,29.72
2017-05-28T17:20:31.913Z,30.3
2017-05-28T17:21:31.936Z,29.33
2017-05-28T17:22:31.571Z,29.14
2017-05-28T17:23:31.902Z,30.21
2017-05-28T17:24:31.565Z,30.79
2017-05-28T17:25:31.945Z,32.64
2017-05-28T17:26:32.018Z,30.69
2017-05-28T17:27:32.902Z,30.3
2017-05-28T17:28:31.974Z,30.59
2017-05-28T17:29:32.067Z,30.69
2017-05-28T17:30:31.717Z,30.21
2017-05-28T17:31:31.708Z,29.43
2017-05-28T17:32:32.013Z,29.44
2017-05-28T17:33:32.004Z,30.3
2017-05-28T17:34:31.698Z,30.4
2017-05-28T17:35:32.097Z,30.4
2017-05-28T17:36:31.724Z,29.24
2017-05-28T17:37:32.115Z,29.54
2017-05-28T17:38:32.048Z,29.52
2017-05-28T17:39:32.036Z,29.62
2017-05-28T17:40:31.702Z,31.37
2017-05-28T17:41:32.142Z,30.79
2017-05-28T17:42:32.019Z,30.4
2017-05-28T17:43:32.159Z,31.58
2017-05-28T17:44:32.174Z,32.44
2017-05-28T17:45:31.754Z,31.85
2017-05-28T17:46:32.019Z,31.85
2017-05-28T17:47:31.744Z,30.88
2017-05-28T17:48:32.050Z,31.37
2017-05-28T17:49:31.816Z,30.59
2017-05-28T17:50:31.845Z,32.05
2017-05-28T17:51:31.777Z,31.47
2017-05-28T17:52:32.168Z,32.64
2017-05-28T17:53:32.198Z,34.27
2017-05-28T17:54:31.859Z,35.05
2017-05-28T17:55:32.142Z,35.72
2017-05-28T17:56:32.217Z,35.33
2017-05-28T17:57:31.902Z,36.1
2017-05-28T17:58:31.851Z,36
2017-05-28T17:59:32.273Z,35.71
2017-05-28T18:00:32.183Z,36
2017-05-28T18:01:32.361Z,37.34
2017-05-28T18:02:32.550Z,38.21
2017-05-28T18:03:32.326Z,36.85
2017-05-28T18:04:31.847Z,36.74
2017-05-28T18:05:31.978Z,37.9
2017-05-28T18:06:32.480Z,37.51
2017-05-28T18:07:32.400Z,37.11
2017-05-28T18:08:31.886Z,37.59
2017-05-28T18:09:32.506Z,37.79
2017-05-28T18:10:32.261Z,38.93
2017-05-28T18:11:32.485Z,40.38
2017-05-28T18:12:32.733Z,40.86
2017-05-28T18:13:32.487Z,43.95
2017-05-28T18:14:32.321Z,44.53
2017-05-28T18:15:31.980Z,45.78
2017-05-28T18:16:32.375Z,45.66
2017-05-28T18:17:32.254Z,45.76
2017-05-28T18:18:32.548Z,46.73
2017-05-28T18:19:32.307Z,47.38
2017-05-28T18:20:32.282Z,50.18
2017-05-28T18:21:31.952Z,49.58
2017-05-28T18:22:32.418Z,48.52
2017-05-28T18:23:32.584Z,48.01
2017-05-28T18:24:32.530Z,47.81
2017-05-28T18:25:32.758Z,49.95
2017-05-28T18:26:32.573Z,49.65
2017-05-28T18:27:31.978Z,50.21
2017-05-28T18:28:32.616Z,51.07
2017-05-28T18:29:32.601Z,51.27
2017-05-28T18:30:31.990Z,50.11
2017-05-28T18:31:31.997Z,51.95
2017-05-28T18:32:32.666Z,52.31
2017-05-28T18:33:32.459Z,52.4
2017-05-28T18:34:32.419Z,54.53
2017-05-28T18:35:32.520Z,52.4
2017-05-28T18:36:32.718Z,52.59
2017-05-28T18:37:32.847Z,53.34
2017-05-28T18:38:32.101Z,52.37
2017-05-28T18:39:32.137Z,54.21
2017-05-28T18:40:32.579Z,53.53
2017-05-28T18:41:32.030Z,54.18
2017-05-28T18:42:32.565Z,53.03
2017-05-28T18:43:32.358Z,54.09
2017-05-28T18:44:32.362Z,53.8
2017-05-28T18:45:32.548Z,54.38
2017-05-28T18:46:32.175Z,56.4
2017-05-28T18:47:32.492Z,55.24
2017-05-28T18:48:32.062Z,56.4
2017-05-28T18:49:32.380Z,56.76
2017-05-28T18:50:32.055Z,57.05
2017-05-28T18:51:32.431Z,58.2
2017-05-28T18:52:32.460Z,57.82
2017-05-28T18:53:32.384Z,58.49
2017-05-28T18:54:32.392Z,57.05
2017-05-28T18:55:32.396Z,57.21
2017-05-28T18:56:32.441Z,56.63
2017-05-28T18:57:32.202Z,56.05
2017-05-28T18:58:32.286Z,58.08
2017-05-28T18:59:32.447Z,57.31
2017-05-28T19:00:32.488Z,56.35
2017-05-28T19:01:32.396Z,55.96
2017-05-28T19:02:32.509Z,57.6
2017-05-28T19:03:32.295Z,57.02
2017-05-28T19:04:32.410Z,56.05
2017-05-28T19:05:32.684Z,56.99
2017-05-28T19:06:32.144Z,57.09
2017-05-28T19:07:32.611Z,57.09
2017-05-28T19:08:32.574Z,56.99
2017-05-28T19:09:32.449Z,57.95
2017-05-28T19:10:32.648Z,58.24
2017-05-28T19:11:32.084Z,58.34
2017-05-28T19:12:32.777Z,59.69
2017-05-28T19:13:32.529Z,58.12
2017-05-28T19:14:32.131Z,60.62
2017-05-28T19:15:32.433Z,61.19
2017-05-28T19:16:32.090Z,61.77
2017-05-28T19:17:32.090Z,61.68
2017-05-28T19:18:32.412Z,61.58
2017-05-28T19:19:32.418Z,63.02
2017-05-28T19:20:32.091Z,61.87
2017-05-28T19:21:32.091Z,63.02
2017-05-28T19:22:32.094Z,62.41
2017-05-28T19:23:32.417Z,63.95
2017-05-28T19:24:32.096Z,64.05
2017-05-28T19:25:32.439Z,62.9
2017-05-28T19:26:32.419Z,61.55
2017-05-28T19:27:32.098Z,62.8
2017-05-28T19:28:32.420Z,63.86
2017-05-28T19:29:32.098Z,64.63
2017-05-28T19:30:32.425Z,64.82
2017-05-28T19:31:32.440Z,64.6
2017-05-28T19:32:32.421Z,63.35
2017-05-28T19:33:32.137Z,64.02
2017-05-28T19:34:32.425Z,65.17
2017-05-28T19:35:32.419Z,64.5
2017-05-28T19:36:32.436Z,63.54
2017-05-28T19:37:32.099Z,64.31
2017-05-28T19:38:32.431Z,62.96
2017-05-28T19:39:32.435Z,64.4
2017-05-28T19:40:32.100Z,65.56
2017-05-28T19:41:32.420Z,65.66
2017-05-28T19:42:32.420Z,65.66
2017-05-28T19:43:32.421Z,65.91
2017-05-28T19:44:32.118Z,64.18
2017-05-28T19:45:32.422Z,64.69
2017-05-28T19:46:32.422Z,65.33
2017-05-28T19:47:32.422Z,64.56
2017-05-28T19:48:32.449Z,64.85
2017-05-28T19:49:32.119Z,64.95
2017-05-28T19:50:32.419Z,64.95
2017-05-28T19:51:32.416Z,64.28
2017-05-28T19:52:32.431Z,65.14
2017-05-28T19:53:32.457Z,64.85
2017-05-28T19:54:32.121Z,63.99
2017-05-28T19:55:32.096Z,64.56
2017-05-28T19:56:32.417Z,65.23
2017-05-28T19:57:32.418Z,65.91
2017-05-28T19:58:32.106Z,65.62
2017-05-28T19:59:32.417Z,66.49
2017-05-28T20:00:32.897Z,66.58
2017-05-28T20:01:32.093Z,66.3
2017-05-28T20:02:32.123Z,66.39
2017-05-28T20:03:32.413Z,66.36
2017-05-28T20:04:32.417Z,64.82
2017-05-28T20:05:32.500Z,65.01
2017-05-28T20:06:32.430Z,64.63
2017-05-28T20:07:32.433Z,64.34
2017-05-28T20:08:32.430Z,64.43
2017-05-28T20:09:32.431Z,64.15
2017-05-28T20:10:32.090Z,64.34
2017-05-28T20:11:32.432Z,64.92
2017-05-28T20:12:32.395Z,64.34
2017-05-28T20:13:32.427Z,65.2
2017-05-28T20:14:32.406Z,65.11
2017-05-28T20:15:32.087Z,65.78
2017-05-28T20:16:32.086Z,65.88
2017-05-28T20:17:32.864Z,65.59
2017-05-28T20:18:32.427Z,64.72
2017-05-28T20:19:32.404Z,65.11
2017-05-28T20:20:32.892Z,65.97
2017-05-28T20:21:32.993Z,65.59
2017-05-28T20:22:32.401Z,65.78
2017-05-28T20:23:32.113Z,64.82
2017-05-28T20:24:32.402Z,64.92
2017-05-28T20:25:32.401Z,64.82
2017-05-28T20:26:32.493Z,64.82
2017-05-28T20:27:32.417Z,64.82
2017-05-28T20:28:32.417Z,63.96
2017-05-28T20:29:32.724Z,64.53
2017-05-28T20:30:32.395Z,63.67
2017-05-28T20:31:32.072Z,63.86
2017-05-28T20:32:32.392Z,63.67
2017-05-28T20:33:32.395Z,63.86
2017-05-28T20:34:32.435Z,63.57
2017-05-28T20:35:32.391Z,63.57
2017-05-28T20:36:32.427Z,63.67
2017-05-28T20:37:32.388Z,64.15
2017-05-28T20:38:32.404Z,64.15
2017-05-28T20:39:32.387Z,64.12
2017-05-28T20:40:32.387Z,64.02
2017-05-28T20:41:32.457Z,64.05
2017-05-28T20:42:32.445Z,63.83
2017-05-28T20:43:32.061Z,64.05
2017-05-28T20:44:32.061Z,64.69
2017-05-28T20:45:32.060Z,64.31
2017-05-28T20:46:32.672Z,63.86
2017-05-28T20:47:32.057Z,64.02
2017-05-28T20:48:32.399Z,63.83
2017-05-28T20:49:32.078Z,63.83
2017-05-28T20:50:32.375Z,63.73
2017-05-28T20:51:32.375Z,63.83
2017-05-28T20:52:32.376Z,62.77
2017-05-28T20:53:32.373Z,63.73
2017-05-28T20:54:32.372Z,62.87
2017-05-28T20:55:32.370Z,63.54
2017-05-28T20:56:32.370Z,63.83
2017-05-28T20:57:32.396Z,64.31
2017-05-28T20:58:32.367Z,64.22
2017-05-28T20:59:32.365Z,63.83
2017-05-28T21:00:32.364Z,63.83
2017-05-28T21:01:32.380Z,64.12
2017-05-28T21:02:32.055Z,63.73
2017-05-28T21:03:32.375Z,64.4
2017-05-28T21:04:32.378Z,64.5
2017-05-28T21:05:32.057Z,63.35
2017-05-28T21:06:32.036Z,63.92
2017-05-28T21:07:32.377Z,63.25
2017-05-28T21:08:32.034Z,62.48
2017-05-28T21:09:32.352Z,62.68
2017-05-28T21:10:32.035Z,62.87
2017-05-28T21:11:32.353Z,62.96
2017-05-28T21:12:32.350Z,63.32
2017-05-28T21:13:32.358Z,63.83
2017-05-28T21:14:32.351Z,65.43
2017-05-28T21:15:32.346Z,65.08
2017-05-28T21:16:32.028Z,64.69
2017-05-28T21:17:32.364Z,63.92
2017-05-28T21:18:32.342Z,63.32
2017-05-28T21:19:32.018Z,63.16
2017-05-28T21:20:32.360Z,62.96
2017-05-28T21:21:32.337Z,63.89
2017-05-28T21:22:32.338Z,62.87
2017-05-28T21:23:32.335Z,63.6
2017-05-28T21:24:32.027Z,63.64
2017-05-28T21:25:32.332Z,63.35
2017-05-28T21:26:32.331Z,62.93
2017-05-28T21:27:32.008Z,63.16
2017-05-28T21:28:32.006Z,61.91
2017-05-28T21:29:32.326Z,62.74
2017-05-28T21:30:32.006Z,64.02
2017-05-28T21:31:32.341Z,63.7
2017-05-28T21:32:32.005Z,63.79
2017-05-28T21:33:32.000Z,64.37
2017-05-28T21:34:32.320Z,64.95
2017-05-28T21:35:32.317Z,65.72
2017-05-28T21:36:32.316Z,65.81
2017-05-28T21:37:32.317Z,65.33
2017-05-28T21:38:32.002Z,64.56
2017-05-28T21:39:32.329Z,63.89
2017-05-28T21:40:32.311Z,64.37
2017-05-28T21:41:31.989Z,64.18
2017-05-28T21:42:31.986Z,64.85
2017-05-28T21:43:32.307Z,64.09
2017-05-28T21:44:31.983Z,63.79
2017-05-28T21:45:32.303Z,64.09
2017-05-28T21:46:32.301Z,63.7
2017-05-28T21:47:32.300Z,63.42
2017-05-28T21:48:32.317Z,64.56
2017-05-28T21:49:32.296Z,63.99
2017-05-28T21:50:32.316Z,64.66
2017-05-28T21:51:32.295Z,65.81
2017-05-28T21:52:31.984Z,66
2017-05-28T21:53:31.970Z,65.05
2017-05-28T21:54:32.291Z,66.49
2017-05-28T21:55:32.286Z,66.49
2017-05-28T21:56:32.291Z,66.45
2017-05-28T21:57:32.291Z,66.26
2017-05-28T21:58:31.975Z,67.41
2017-05-28T21:59:31.959Z,67.89
2017-05-28T22:00:31.955Z,67.79
2017-05-28T22:01:32.301Z,68.27
2017-05-28T22:02:32.298Z,68.56
2017-05-28T22:03:32.274Z,68.95
2017-05-28T22:04:31.955Z,69.13
2017-05-28T22:05:31.951Z,68.08
2017-05-28T22:06:32.270Z,67.99
2017-05-28T22:07:32.268Z,67.99
2017-05-28T22:08:32.274Z,68.18
2017-05-28T22:09:32.265Z,67.02
2017-05-28T22:10:32.262Z,66.64
2017-05-28T22:11:32.272Z,67.02
2017-05-28T22:12:31.960Z,66.93
2017-05-28T22:13:32.261Z,67.22
2017-05-28T22:14:32.256Z,67.12
2017-05-28T22:15:32.253Z,66.55
2017-05-28T22:16:32.251Z,65.88
2017-05-28T22:17:32.250Z,64.72
2017-05-28T22:18:32.244Z,63.67
2017-05-28T22:19:32.247Z,63.86
2017-05-28T22:20:32.245Z,63.83
2017-05-28T22:21:31.919Z,64.12
2017-05-28T22:22:31.921Z,63.57
2017-05-28T22:23:32.238Z,64.12
2017-05-28T22:24:31.934Z,64.82
2017-05-28T22:25:32.256Z,63.96
2017-05-28T22:26:32.232Z,64.82
2017-05-28T22:27:31.907Z,65.68
2017-05-28T22:28:32.229Z,65.2
2017-05-28T22:29:31.918Z,64.63
2017-05-28T22:30:32.224Z,64.82
2017-05-28T22:31:31.898Z,63.86
2017-05-28T22:32:32.497Z,64.69
2017-05-28T22:33:31.895Z,64.89
2017-05-28T22:34:32.227Z,64.22
2017-05-28T22:35:31.893Z,63.54
2017-05-28T22:36:32.222Z,64.5
2017-05-28T22:37:32.227Z,63.73
2017-05-28T22:38:32.232Z,64.4
2017-05-28T22:39:32.211Z,64.31
2017-05-28T22:40:32.230Z,63.64
2017-05-28T22:41:32.203Z,63.73
2017-05-28T22:42:32.201Z,61.91
2017-05-28T22:43:31.879Z,62.3
2017-05-28T22:44:32.195Z,63.96
2017-05-28T22:45:32.197Z,63.83
2017-05-28T22:46:32.193Z,64.5
2017-05-28T22:47:32.190Z,64.43
2017-05-28T22:48:32.209Z,63.57
2017-05-28T22:49:32.988Z,64.82
2017-05-28T22:50:32.186Z,64.69
2017-05-28T22:51:32.186Z,64.82
2017-05-28T22:52:32.191Z,64.05
2017-05-28T22:53:31.856Z,64.79
2017-05-28T22:54:31.853Z,65.11
2017-05-28T22:55:32.173Z,64.53
2017-05-28T22:56:32.220Z,64.63
2017-05-28T22:57:31.845Z,64.69
2017-05-28T22:58:31.844Z,65.11
2017-05-28T22:59:31.841Z,64.43
2017-05-28T23:00:32.551Z,64.34
2017-05-28T23:01:31.838Z,64.69
2017-05-28T23:02:31.836Z,64.43
2017-05-28T23:03:32.164Z,65.46
2017-05-28T23:04:32.152Z,65.01
2017-05-28T23:05:32.199Z,64.82
2017-05-28T23:06:32.307Z,63.83
2017-05-28T23:07:31.827Z,63.67
2017-05-28T23:08:32.145Z,62.87
2017-05-28T23:09:31.823Z,62.9
2017-05-28T23:10:32.142Z,63
2017-05-28T23:11:32.630Z,62.96
2017-05-28T23:12:31.824Z,62.77
2017-05-28T23:13:32.146Z,63
2017-05-28T23:14:31.808Z,62.49
2017-05-28T23:15:31.810Z,63.54
2017-05-28T23:16:32.249Z,63.92
2017-05-28T23:17:32.706Z,63.54
2017-05-28T23:18:32.126Z,63.54
2017-05-28T23:19:32.136Z,63.64
2017-05-28T23:20:32.119Z,63.83
2017-05-28T23:21:32.223Z,64.79
2017-05-28T23:22:32.493Z,64.4
2017-05-28T23:23:32.603Z,64.59
2017-05-28T23:24:32.113Z,64.4
2017-05-28T23:25:32.111Z,63.54
2017-05-28T23:26:32.108Z,63.83
2017-05-28T23:27:32.103Z,62.2
2017-05-28T23:28:31.780Z,62.3
2017-05-28T23:29:32.702Z,61.72
2017-05-28T23:30:32.684Z,62.39
2017-05-28T23:31:31.792Z,62.01
2017-05-28T23:32:32.094Z,61.53
2017-05-28T23:33:32.092Z,61.91
2017-05-28T23:34:31.778Z,62.3
2017-05-28T23:35:32.688Z,61.34
2017-05-28T23:36:32.510Z,62.77
2017-05-28T23:37:32.513Z,61.72
2017-05-28T23:38:32.105Z,61.43
2017-05-28T23:39:31.769Z,62.1
2017-05-28T23:40:32.079Z,61.91
2017-05-28T23:41:32.398Z,62.39
2017-05-28T23:42:32.217Z,62.39
2017-05-28T23:43:32.068Z,63.73
2017-05-28T23:44:32.071Z,64.5
2017-05-28T23:45:32.069Z,63.26
2017-05-28T23:46:31.741Z,62.39
2017-05-28T23:47:31.795Z,63.92
2017-05-28T23:48:32.155Z,62.87
2017-05-28T23:49:31.772Z,62.2
2017-05-28T23:50:32.123Z,62.96
2017-05-28T23:51:31.749Z,62.96
2017-05-28T23:52:32.595Z,62.68
2017-05-28T23:53:32.078Z,61.82
2017-05-28T23:54:31.720Z,61.15
2017-05-28T23:55:31.720Z,62.3
2017-05-28T23:56:31.717Z,62.49
2017-05-28T23:57:32.120Z,62.1
2017-05-28T23:58:31.895Z,62.68
2017-05-28T23:59:32.032Z,62.96
